Time,TemperatureF,DewpointF,PressureIn,WindDirection,WindDirectionDegrees,WindSpeedMPH,WindSpeedGustMPH,Humidity,HourlyPrecipIn,Conditions,Clouds,dailyrainin,SoftwareType,DateUTC
2013-01-17 00:33:00,32.0,-99.9,-100.00,East,90,2.0,3.0,-999,-99.99,,,-99.99,,2013-01-17 08:33:00,
2013-01-17 00:44:00,32.0,-99.9,-100.00,East,90,2.0,3.0,-999,-99.99,,,-99.99,,2013-01-17 08:44:00,
2013-01-17 00:53:00,32.0,-99.9,-100.00,East,90,2.0,3.0,-999,-99.99,,,-99.99,,2013-01-17 08:53:00,
2013-01-17 01:33:00,32.0,-99.9,-100.00,ENE,64,1.0,2.0,-999,-99.99,,,-99.99,,2013-01-17 09:33:00,
2013-01-17 01:43:00,32.0,-99.9,-100.00,ENE,64,1.0,2.0,-999,-99.99,,,-99.99,,2013-01-17 09:43:00,
2013-01-17 01:53:00,32.0,-99.9,-100.00,ENE,64,1.0,2.0,-999,-99.99,,,-99.99,,2013-01-17 09:53:00,
2013-01-17 02:33:00,32.0,-99.9,-100.00,SE,135,1.0,3.0,-999,-99.99,,,-99.99,,2013-01-17 10:33:00,
2013-01-17 02:43:00,32.0,-99.9,-100.00,SE,135,1.0,3.0,-999,-99.99,,,-99.99,,2013-01-17 10:43:00,
2013-01-17 02:53:00,32.0,-99.9,-100.00,East,96,0.0,3.0,-999,-99.99,,,-99.99,,2013-01-17 10:53:00,
2013-01-17 03:20:00,31.0,-99.9,-100.00,NNE,32,0.0,2.0,-999,-99.99,,,-99.99,,2013-01-17 11:20:00,
2013-01-17 03:33:00,31.0,-99.9,-100.00,SE,141,1.0,2.0,-999,-99.99,,,-99.99,,2013-01-17 11:33:00,
2013-01-17 03:43:00,31.0,-99.9,-100.00,SE,141,1.0,2.0,-999,-99.99,,,-99.99,,2013-01-17 11:43:00,
2013-01-17 03:53:00,32.0,-99.9,-100.00,SSE,158,0.0,2.0,-999,-99.99,,,-99.99,,2013-01-17 11:53:00,
2013-01-17 04:00:00,32.0,-99.9,-100.00,East,95,0.0,1.0,-999,-99.99,,,-99.99,,2013-01-17 12:00:00,
2013-01-17 04:03:00,31.0,-99.9,-100.00,NNE,32,0.0,2.0,-999,-99.99,,,-99.99,,2013-01-17 12:03:00,
2013-01-17 04:12:00,31.0,-99.9,-100.00,NNE,32,0.0,2.0,-999,-99.99,,,-99.99,,2013-01-17 12:12:00,
2013-01-17 04:33:00,32.0,-99.9,-100.00,NNE,19,0.0,2.0,-999,-99.99,,,-99.99,,2013-01-17 12:33:00,
2013-01-17 04:43:00,32.0,-99.9,-100.00,NNE,19,0.0,2.0,-999,-99.99,,,-99.99,,2013-01-17 12:43:00,
2013-01-17 04:53:00,32.0,-99.9,-100.00,East,95,0.0,1.0,-999,-99.99,,,-99.99,,2013-01-17 12:53:00,
2013-01-17 05:23:00,31.0,-99.9,-100.00,West,265,4.0,4.0,-999,-99.99,,,-99.99,,2013-01-17 13:23:00,
2013-01-17 05:33:00,32.0,-99.9,-100.00,SSE,167,3.0,5.0,-999,-99.99,,,-99.99,,2013-01-17 13:33:00,
2013-01-17 05:43:00,32.0,-99.9,-100.00,SSE,167,3.0,5.0,-999,-99.99,,,-99.99,,2013-01-17 13:43:00,
2013-01-17 05:53:00,32.0,-99.9,-100.00,SSE,167,3.0,5.0,-999,-99.99,,,-99.99,,2013-01-17 13:53:00,
2013-01-17 06:04:00,32.0,-99.9,-100.00,SSE,154,1.0,4.0,-999,-99.99,,,-99.99,,2013-01-17 14:04:00,
2013-01-17 06:13:00,32.0,-99.9,-100.00,SSE,154,1.0,4.0,-999,-99.99,,,-99.99,,2013-01-17 14:13:00,
2013-01-17 06:23:00,32.0,-99.9,-100.00,South,170,3.0,4.0,-999,-99.99,,,-99.99,,2013-01-17 14:23:00,
2013-01-17 06:33:00,32.0,-99.9,-100.00,East,82,0.0,1.0,-999,-99.99,,,-99.99,,2013-01-17 14:33:00,
2013-01-17 06:43:00,32.0,-99.9,-100.00,East,82,0.0,1.0,-999,-99.99,,,-99.99,,2013-01-17 14:43:00,
2013-01-17 06:53:00,32.0,-99.9,-100.00,East,82,0.0,1.0,-999,-99.99,,,-99.99,,2013-01-17 14:53:00,
2013-01-17 07:10:00,33.0,-99.9,-100.00,SE,146,0.0,2.0,-999,-99.99,,,-99.99,,2013-01-17 15:10:00,
2013-01-17 07:23:00,32.0,-99.9,-100.00,SE,132,1.0,2.0,-999,-99.99,,,-99.99,,2013-01-17 15:23:00,
2013-01-17 07:33:00,33.0,-99.9,-100.00,South,182,0.0,0.0,-999,-99.99,,,-99.99,,2013-01-17 15:33:00,
2013-01-17 07:44:00,33.0,-99.9,-100.00,South,182,0.0,0.0,-999,-99.99,,,-99.99,,2013-01-17 15:44:00,
2013-01-17 07:53:00,33.0,-99.9,-100.00,SE,146,0.0,2.0,-999,-99.99,,,-99.99,,2013-01-17 15:53:00,
2013-01-17 08:03:00,33.0,-99.9,-100.00,SE,146,0.0,2.0,-999,-99.99,,,-99.99,,2013-01-17 16:03:00,
2013-01-17 08:34:00,32.0,-99.9,-100.00,East,83,1.0,5.0,-999,-99.99,,,-99.99,,2013-01-17 16:34:00,
2013-01-17 08:44:00,32.0,-99.9,-100.00,East,83,1.0,5.0,-999,-99.99,,,-99.99,,2013-01-17 16:44:00,
2013-01-17 08:53:00,32.0,-99.9,-100.00,East,83,1.0,5.0,-999,-99.99,,,-99.99,,2013-01-17 16:53:00,
2013-01-17 09:04:00,32.0,-99.9,-100.00,NE,52,0.0,1.0,-999,-99.99,,,-99.99,,2013-01-17 17:04:00,
2013-01-17 09:13:00,32.0,-99.9,-100.00,NE,52,0.0,1.0,-999,-99.99,,,-99.99,,2013-01-17 17:13:00,
2013-01-17 09:23:00,31.0,-99.9,-100.00,SSE,151,3.0,3.0,-999,-99.99,,,-99.99,,2013-01-17 17:23:00,
2013-01-17 09:33:00,31.0,-99.9,-100.00,SSE,151,3.0,3.0,-999,-99.99,,,-99.99,,2013-01-17 17:33:00,
2013-01-17 09:54:00,31.0,-99.9,-100.00,SE,128,3.0,5.0,-999,-99.99,,,-99.99,,2013-01-17 17:54:00,
2013-01-17 10:34:00,32.0,-99.9,-100.00,SSE,154,2.0,5.0,-999,-99.99,,,-99.99,,2013-01-17 18:34:00,
2013-01-17 10:44:00,32.0,-99.9,-100.00,SSE,154,2.0,5.0,-999,-99.99,,,-99.99,,2013-01-17 18:44:00,
2013-01-17 10:54:00,32.0,-99.9,-100.00,SSE,154,2.0,5.0,-999,-99.99,,,-99.99,,2013-01-17 18:54:00,
2013-01-17 11:33:00,33.0,-99.9,-100.00,ENE,74,2.0,4.0,-999,-99.99,,,-99.99,,2013-01-17 19:33:00,
2013-01-17 11:43:00,33.0,-99.9,-100.00,ENE,74,2.0,4.0,-999,-99.99,,,-99.99,,2013-01-17 19:43:00,
2013-01-17 11:54:00,33.0,-99.9,-100.00,ENE,74,2.0,4.0,-999,-99.99,,,-99.99,,2013-01-17 19:54:00,
2013-01-17 12:34:00,34.0,-99.9,-100.00,South,188,0.0,2.0,-999,-99.99,,,-99.99,,2013-01-17 20:34:00,
2013-01-17 12:44:00,34.0,-99.9,-100.00,South,188,0.0,2.0,-999,-99.99,,,-99.99,,2013-01-17 20:44:00,
2013-01-17 12:54:00,34.0,-99.9,-100.00,South,188,0.0,2.0,-999,-99.99,,,-99.99,,2013-01-17 20:54:00,
2013-01-17 13:34:00,32.0,-99.9,-100.00,ESE,121,0.0,3.0,-999,-99.99,,,-99.99,,2013-01-17 21:34:00,
2013-01-17 13:43:00,32.0,-99.9,-100.00,ESE,121,0.0,3.0,-999,-99.99,,,-99.99,,2013-01-17 21:43:00,
2013-01-17 13:54:00,32.0,-99.9,-100.00,ESE,121,0.0,3.0,-999,-99.99,,,-99.99,,2013-01-17 21:54:00,
2013-01-17 14:33:00,32.0,-99.9,-100.00,ENE,60,5.0,5.0,-999,-99.99,,,-99.99,,2013-01-17 22:33:00,
2013-01-17 14:43:00,32.0,-99.9,-100.00,ENE,60,5.0,5.0,-999,-99.99,,,-99.99,,2013-01-17 22:43:00,
2013-01-17 14:53:00,32.0,-99.9,-100.00,ENE,60,5.0,5.0,-999,-99.99,,,-99.99,,2013-01-17 22:53:00,
2013-01-17 15:43:00,32.0,-99.9,-100.00,ENE,63,1.0,5.0,-999,-99.99,,,-99.99,,2013-01-17 23:43:00,
2013-01-17 15:53:00,32.0,-99.9,-100.00,ENE,63,1.0,5.0,-999,-99.99,,,-99.99,,2013-01-17 23:53:00,
2013-01-17 16:43:00,33.0,-99.9,-100.00,SSE,148,1.0,2.0,-999,-99.99,,,-99.99,,2013-01-18 00:43:00,
2013-01-17 16:53:00,32.0,-99.9,-100.00,SE,125,1.0,4.0,-999,-99.99,,,-99.99,,2013-01-18 00:53:00,
2013-01-17 17:03:00,32.0,-99.9,-100.00,SE,125,1.0,4.0,-999,-99.99,,,-99.99,,2013-01-18 01:03:00,
2013-01-17 17:33:00,33.0,-99.9,-100.00,SSW,193,2.0,3.0,-999,-99.99,,,-99.99,,2013-01-18 01:33:00,
2013-01-17 17:43:00,33.0,-99.9,-100.00,SSW,193,2.0,3.0,-999,-99.99,,,-99.99,,2013-01-18 01:43:00,
2013-01-17 17:53:00,33.0,-99.9,-100.00,SSW,193,2.0,3.0,-999,-99.99,,,-99.99,,2013-01-18 01:53:00,
2013-01-17 18:33:00,33.0,-99.9,-100.00,SSE,157,1.0,3.0,-999,-99.99,,,-99.99,,2013-01-18 02:33:00,
2013-01-17 18:43:00,33.0,-99.9,-100.00,SSE,157,1.0,3.0,-999,-99.99,,,-99.99,,2013-01-18 02:43:00,
2013-01-17 18:53:00,33.0,-99.9,-100.00,SSE,157,1.0,3.0,-999,-99.99,,,-99.99,,2013-01-18 02:53:00,
2013-01-17 19:03:00,32.0,-99.9,-100.00,South,178,4.0,5.0,-999,-99.99,,,-99.99,,2013-01-18 03:03:00,
2013-01-17 19:13:00,32.0,-99.9,-100.00,South,178,4.0,5.0,-999,-99.99,,,-99.99,,2013-01-18 03:13:00,
2013-01-17 19:33:00,33.0,-99.9,-100.00,SSE,148,1.0,3.0,-999,-99.99,,,-99.99,,2013-01-18 03:33:00,
2013-01-17 19:43:00,33.0,-99.9,-100.00,SSE,148,1.0,3.0,-999,-99.99,,,-99.99,,2013-01-18 03:43:00,
2013-01-17 19:53:00,33.0,-99.9,-100.00,ESE,103,0.0,1.0,-999,-99.99,,,-99.99,,2013-01-18 03:53:00,
2013-01-17 20:03:00,32.0,-99.9,-100.00,NE,40,0.0,2.0,-999,-99.99,,,-99.99,,2013-01-18 04:03:00,
2013-01-17 20:12:00,32.0,-99.9,-100.00,NE,40,0.0,2.0,-999,-99.99,,,-99.99,,2013-01-18 04:12:00,
2013-01-17 20:22:00,33.0,-99.9,-100.00,ENE,62,0.0,4.0,-999,-99.99,,,-99.99,,2013-01-18 04:22:00,
2013-01-17 20:33:00,34.0,-99.9,-100.00,South,179,2.0,3.0,-999,-99.99,,,-99.99,,2013-01-18 04:33:00,
2013-01-17 20:43:00,34.0,-99.9,-100.00,South,179,2.0,3.0,-999,-99.99,,,-99.99,,2013-01-18 04:43:00,
2013-01-17 20:53:00,32.0,-99.9,-100.00,SE,135,2.0,2.0,-999,-99.99,,,-99.99,,2013-01-18 04:53:00,
2013-01-17 21:04:00,33.0,-99.9,-100.00,NNE,31,0.0,2.0,-999,-99.99,,,-99.99,,2013-01-18 05:04:00,
2013-01-17 21:12:00,33.0,-99.9,-100.00,NNE,31,0.0,2.0,-999,-99.99,,,-99.99,,2013-01-18 05:12:00,
2013-01-17 21:22:00,33.0,-99.9,-100.00,NNE,31,0.0,2.0,-999,-99.99,,,-99.99,,2013-01-18 05:22:00,
2013-01-17 21:34:00,34.0,-99.9,-100.00,ESE,120,1.0,1.0,-999,-99.99,,,-99.99,,2013-01-18 05:34:00,
2013-01-17 21:43:00,34.0,-99.9,-100.00,ESE,120,1.0,1.0,-999,-99.99,,,-99.99,,2013-01-18 05:43:00,
2013-01-17 21:53:00,34.0,-99.9,-100.00,ESE,120,1.0,1.0,-999,-99.99,,,-99.99,,2013-01-18 05:53:00,
2013-01-17 22:10:00,32.0,-99.9,-100.00,SE,140,1.0,3.0,-999,-99.99,,,-99.99,,2013-01-18 06:10:00,
2013-01-17 22:23:00,32.0,-99.9,-100.00,ESE,106,0.0,2.0,-999,-99.99,,,-99.99,,2013-01-18 06:23:00,
2013-01-17 22:33:00,33.0,-99.9,-100.00,ENE,60,0.0,1.0,-999,-99.99,,,-99.99,,2013-01-18 06:33:00,
2013-01-17 22:43:00,33.0,-99.9,-100.00,ENE,60,0.0,1.0,-999,-99.99,,,-99.99,,2013-01-18 06:43:00,
2013-01-17 22:53:00,32.0,-99.9,-100.00,SE,140,1.0,3.0,-999,-99.99,,,-99.99,,2013-01-18 06:53:00,
2013-01-17 23:00:00,32.0,-99.9,-100.00,SSW,209,2.0,4.0,-999,-99.99,,,-99.99,,2013-01-18 07:00:00,
2013-01-17 23:02:00,32.0,-99.9,-100.00,SE,140,1.0,3.0,-999,-99.99,,,-99.99,,2013-01-18 07:02:00,
2013-01-17 23:33:00,30.0,-99.9,-100.00,SSE,157,3.0,4.0,-999,-99.99,,,-99.99,,2013-01-18 07:33:00,
2013-01-17 23:43:00,30.0,-99.9,-100.00,SSE,157,3.0,4.0,-999,-99.99,,,-99.99,,2013-01-18 07:43:00,
2013-01-17 23:53:00,32.0,-99.9,-100.00,SSW,209,2.0,4.0,-999,-99.99,,,-99.99,,2013-01-18 07:53:00,